Time;durP1;ratioP1;P1;durP2;ratioP2;P2;SDS_P1;SDS_P2;PMS_P1;PMS_P2;Temp;Humidity;BMP_temperature;BMP_pressure;BME280_temperature;BME280_humidity;BME280_pressure;Samples;Min_cycle;Max_cycle;Signal;HPM_P1;HPM_P2
2020/12/14 00:00:58;;;;;;;;;;;;;;;;;;5056229;28;20403;-84
2020/12/14 00:03:25;;;;;;;;;;;;;;;;;;5056156;28;20414;-82
2020/12/14 00:05:51;;;;;;;;;;;;;;;;;;5067059;28;20370;-84
2020/12/14 00:08:17;;;;;;;;;;;;;;;;;;5081924;28;20377;-85
2020/12/14 00:13:28;;;;;;;;;;;;;;;;;;5074762;28;20387;-86
2020/12/14 00:15:55;;;;;;;;;;;;;;;;;;5066230;28;20446;-86
2020/12/14 00:18:21;;;;;;;;;;;;;;;;;;5065408;28;20369;-85
2020/12/14 00:20:47;;;;;;;;;;;;;;;;;;5065869;28;20408;-86
2020/12/14 00:23:14;;;;;;;;;;;;;;;;;;5070238;28;20426;-85
2020/12/14 00:25:40;;;;;;;;;;;;;;;;;;5073532;28;20384;-84
2020/12/14 00:28:07;;;;;;;;;;;;;;;;;;5080163;28;20394;-86
2020/12/14 00:30:33;;;;;;;;;;;;;;;;;;5075788;28;20871;-86
2020/12/14 00:32:59;;;;;;;;;;;;;;;;;;5071540;28;20412;-87
2020/12/14 00:35:26;;;;;;;;;;;;;;;;;;5074611;28;20376;-85
2020/12/14 00:37:52;;;;;;;;;;;;;;;;;;5085347;28;20380;-86
2020/12/14 00:40:24;;;;;;;;;;;;;;;;;;5080014;28;20414;-86
2020/12/14 00:42:52;;;;;;;;;;;;;;;;;;5074765;28;20393;-85
2020/12/14 00:45:18;;;;;;;;;;;;;;;;;;5078183;28;20461;-86
2020/12/14 00:47:45;;;;;;;;;;;;;;;;;;5079827;28;20379;-86
2020/12/14 00:50:11;;;;;;;;;;;;;;;;;;5078876;28;20393;-86
2020/12/14 00:52:37;;;;;;;;;;;;;;;;;;5078533;28;20468;-86
2020/12/14 00:55:10;;;;;;;;;;;;;;;;;;5090704;28;20393;-86
2020/12/14 00:57:38;;;;;;;;;;;;;;;;;;5081947;28;20492;-86
2020/12/14 01:00:04;;;;;;;;;;;;;;;;;;5077129;28;20404;-84
2020/12/14 01:02:31;;;;;;;;;;;;;;;;;;5077889;28;20393;-83
2020/12/14 01:04:57;;;;;;;;;;;;;;;;;;5078123;28;20380;-83
2020/12/14 01:07:23;;;;;;;;;;;;;;;;;;5076579;28;20447;-86
2020/12/14 01:09:50;;;;;;;;;;;;;;;;;;5076623;28;20403;-86
2020/12/14 01:12:16;;;;;;;;;;;;;;;;;;5059317;28;20447;-85
2020/12/14 01:14:43;;;;;;;;;;;;;;;;;;5070692;28;20873;-85
2020/12/14 01:17:09;;;;;;;;;;;;;;;;;;5082313;28;20360;-83
2020/12/14 01:19:35;;;;;;;;;;;;;;;;;;5095885;28;20383;-87
2020/12/14 01:22:02;;;;;;;;;;;;;;;;;;5091993;28;20362;-84
2020/12/14 01:24:28;;;;;;;;;;;;;;;;;;5097593;28;20393;-85
2020/12/14 01:26:55;;;;;;;;;;;;;;;;;;5085985;28;20389;-86
2020/12/14 01:29:21;;;;;;;;;;;;;;;;;;5081516;28;20374;-86
2020/12/14 01:31:47;;;;;;;;;;;;;;;;;;5076812;28;20394;-85
2020/12/14 01:34:14;;;;;;;;;;;;;;;;;;5083177;28;20409;-82
2020/12/14 01:36:40;;;;;;;;;;;;;;;;;;5095402;28;20432;-84
2020/12/14 01:39:06;;;;;;;;;;;;;;;;;;5079617;28;20381;-86
2020/12/14 01:41:33;;;;;;;;;;;;;;;;;;5074621;28;20459;-86
2020/12/14 01:43:59;;;;;;;;;;;;;;;;;;5081491;28;20408;-85
2020/12/14 01:46:26;;;;;;;;;;;;;;;;;;5081850;28;20432;-85
2020/12/14 01:48:52;;;;;;;;;;;;;;;;;;5081265;28;20428;-85
2020/12/14 01:51:18;;;;;;;;;;;;;;;;;;5082569;28;20385;-85
2020/12/14 01:53:45;;;;;;;;;;;;;;;;;;5091128;28;20381;-85
2020/12/14 01:56:11;;;;;;;;;;;;;;;;;;5090179;28;20378;-85
2020/12/14 01:58:37;;;;;;;;;;;;;;;;;;5081330;28;20777;-86
2020/12/14 02:01:04;;;;;;;;;;;;;;;;;;5081835;28;20406;-85
2020/12/14 02:03:30;;;;;;;;;;;;;;;;;;5081383;28;20938;-85
2020/12/14 02:05:56;;;;;;;;;;;;;;;;;;5081479;28;20455;-85
2020/12/14 02:08:23;;;;;;;;;;;;;;;;;;5081031;28;20386;-85
2020/12/14 02:10:49;;;;;;;;;;;;;;;;;;5081622;28;20777;-87
2020/12/14 02:13:16;;;;;;;;;;;;;;;;;;5093901;28;20406;-84
2020/12/14 02:15:42;;;;;;;;;;;;;;;;;;5081331;28;20512;-86
2020/12/14 02:18:08;;;;;;;;;;;;;;;;;;5080065;28;20793;-86
2020/12/14 02:20:35;;;;;;;;;;;;;;;;;;5079583;28;20397;-86
2020/12/14 02:23:01;;;;;;;;;;;;;;;;;;5079837;28;20459;-86
2020/12/14 02:25:27;;;;;;;;;;;;;;;;;;5080023;28;20972;-86
2020/12/14 02:27:54;;;;;;;;;;;;;;;;;;5080207;28;20398;-87
2020/12/14 02:30:20;;;;;;;;;;;;;;;;;;5086085;28;20389;-84
2020/12/14 02:32:47;;;;;;;;;;;;;;;;;;5064778;28;20400;-86
2020/12/14 02:35:13;;;;;;;;;;;;;;;;;;5076426;28;20398;-86
2020/12/14 02:37:39;;;;;;;;;;;;;;;;;;5079442;28;20389;-86
2020/12/14 02:40:06;;;;;;;;;;;;;;;;;;5079674;28;20400;-86
2020/12/14 02:42:32;;;;;;;;;;;;;;;;;;5078775;28;20743;-85
2020/12/14 02:44:58;;;;;;;;;;;;;;;;;;5079562;28;20386;-86
2020/12/14 02:47:25;;;;;;;;;;;;;;;;;;5079263;28;20412;-86
2020/12/14 02:49:51;;;;;;;;;;;;;;;;;;5079473;28;20415;-86
2020/12/14 02:52:18;;;;;;;;;;;;;;;;;;5079489;28;20402;-86
2020/12/14 02:54:44;;;;;;;;;;;;;;;;;;5080543;28;20374;-85
2020/12/14 02:57:10;;;;;;;;;;;;;;;;;;5080940;28;20455;-87
2020/12/14 02:59:37;;;;;;;;;;;;;;;;;;5083494;28;20382;-87
2020/12/14 03:02:03;;;;;;;;;;;;;;;;;;5082436;28;20373;-87
2020/12/14 03:04:30;;;;;;;;;;;;;;;;;;5078378;28;20385;-87
2020/12/14 03:06:57;;;;;;;;;;;;;;;;;;5077262;28;20405;-88
2020/12/14 03:09:23;;;;;;;;;;;;;;;;;;5077483;28;20386;-88
2020/12/14 03:11:49;;;;;;;;;;;;;;;;;;5077032;28;20382;-88
2020/12/14 03:14:16;;;;;;;;;;;;;;;;;;5077224;28;20373;-87
2020/12/14 03:16:42;;;;;;;;;;;;;;;;;;5076501;28;20374;-87
2020/12/14 03:19:08;;;;;;;;;;;;;;;;;;5076004;28;20386;-87
2020/12/14 03:21:35;;;;;;;;;;;;;;;;;;5076668;28;20405;-86
2020/12/14 03:24:01;;;;;;;;;;;;;;;;;;5076825;28;20406;-86
2020/12/14 03:26:28;;;;;;;;;;;;;;;;;;5076531;28;20385;-88
2020/12/14 03:28:54;;;;;;;;;;;;;;;;;;5076861;28;20435;-87
2020/12/14 03:31:20;;;;;;;;;;;;;;;;;;5076911;28;20781;-87
2020/12/14 03:33:47;;;;;;;;;;;;;;;;;;5083197;28;20382;-84
2020/12/14 03:36:13;;;;;;;;;;;;;;;;;;5093028;28;20382;-87
2020/12/14 03:38:39;;;;;;;;;;;;;;;;;;5078717;28;20731;-87
2020/12/14 03:41:06;;;;;;;;;;;;;;;;;;5079307;28;20428;-87
2020/12/14 03:43:32;;;;;;;;;;;;;;;;;;5099817;28;20416;-86
2020/12/14 03:45:58;;;;;;;;;;;;;;;;;;5090888;28;20393;-87
2020/12/14 03:48:25;;;;;;;;;;;;;;;;;;5083049;28;20415;-87
2020/12/14 03:50:51;;;;;;;;;;;;;;;;;;5091892;28;20362;-84
2020/12/14 03:53:18;;;;;;;;;;;;;;;;;;5101746;28;20412;-85
2020/12/14 03:55:44;;;;;;;;;;;;;;;;;;5099592;28;20404;-86
2020/12/14 03:58:10;;;;;;;;;;;;;;;;;;5069852;28;20745;-86
2020/12/14 04:00:37;;;;;;;;;;;;;;;;;;5083546;28;20401;-86
2020/12/14 04:03:06;;;;;;;;;;;;;;;;;;5083151;28;20427;-86
2020/12/14 04:05:32;;;;;;;;;;;;;;;;;;5088592;28;20385;-84
2020/12/14 04:07:58;;;;;;;;;;;;;;;;;;5101192;28;20382;-85
2020/12/14 04:10:25;;;;;;;;;;;;;;;;;;5084408;28;20439;-86
2020/12/14 04:12:51;;;;;;;;;;;;;;;;;;5081758;28;20401;-85
2020/12/14 04:15:18;;;;;;;;;;;;;;;;;;5081446;28;20531;-86
2020/12/14 04:17:44;;;;;;;;;;;;;;;;;;5081548;28;20373;-87
2020/12/14 04:20:10;;;;;;;;;;;;;;;;;;5083342;28;20402;-86
2020/12/14 04:22:37;;;;;;;;;;;;;;;;;;5081140;28;20446;-87
2020/12/14 04:25:03;;;;;;;;;;;;;;;;;;5085764;28;20386;-87
2020/12/14 04:27:30;;;;;;;;;;;;;;;;;;5084095;28;20448;-87
2020/12/14 04:29:56;;;;;;;;;;;;;;;;;;5100294;28;20371;-87
2020/12/14 04:32:22;;;;;;;;;;;;;;;;;;5088340;28;20401;-87
2020/12/14 04:34:49;;;;;;;;;;;;;;;;;;5083108;28;20397;-87
2020/12/14 04:37:15;;;;;;;;;;;;;;;;;;5091661;28;20386;-86
2020/12/14 04:39:41;;;;;;;;;;;;;;;;;;5083637;28;20750;-87
2020/12/14 04:42:08;;;;;;;;;;;;;;;;;;5080631;28;20413;-87
2020/12/14 04:44:34;;;;;;;;;;;;;;;;;;5079860;28;20382;-87
2020/12/14 04:47:01;;;;;;;;;;;;;;;;;;5080233;28;20390;-88
2020/12/14 04:49:27;;;;;;;;;;;;;;;;;;5079451;28;20374;-88
2020/12/14 04:51:53;;;;;;;;;;;;;;;;;;5079639;28;20398;-85
2020/12/14 04:54:20;;;;;;;;;;;;;;;;;;5079595;28;20466;-88
2020/12/14 04:56:46;;;;;;;;;;;;;;;;;;5079490;28;20427;-87
2020/12/14 04:59:13;;;;;;;;;;;;;;;;;;5080221;28;20393;-87
2020/12/14 05:01:39;;;;;;;;;;;;;;;;;;5080234;28;20428;-87
2020/12/14 05:04:05;;;;;;;;;;;;;;;;;;5075091;28;20401;-86
2020/12/14 05:06:32;;;;;;;;;;;;;;;;;;5080085;28;20394;-87
2020/12/14 05:08:58;;;;;;;;;;;;;;;;;;5079513;28;20388;-87
2020/12/14 05:11:24;;;;;;;;;;;;;;;;;;5079797;28;20381;-87
2020/12/14 05:13:51;;;;;;;;;;;;;;;;;;5076099;28;20397;-88
2020/12/14 05:16:17;;;;;;;;;;;;;;;;;;5059988;28;20392;-87
2020/12/14 05:18:43;;;;;;;;;;;;;;;;;;5072454;28;20789;-87
2020/12/14 05:21:10;;;;;;;;;;;;;;;;;;5073663;28;20401;-87
2020/12/14 05:23:36;;;;;;;;;;;;;;;;;;5080171;28;20813;-86
2020/12/14 05:26:03;;;;;;;;;;;;;;;;;;5080552;28;20400;-86
2020/12/14 05:28:29;;;;;;;;;;;;;;;;;;5080967;28;20386;-86
2020/12/14 05:30:55;;;;;;;;;;;;;;;;;;5074532;28;20467;-86
2020/12/14 05:33:22;;;;;;;;;;;;;;;;;;5067632;28;20405;-86
2020/12/14 05:35:48;;;;;;;;;;;;;;;;;;5079134;28;20374;-85
2020/12/14 05:38:15;;;;;;;;;;;;;;;;;;5079121;28;20382;-85
2020/12/14 05:40:41;;;;;;;;;;;;;;;;;;5078360;28;20394;-86
2020/12/14 05:43:07;;;;;;;;;;;;;;;;;;5077573;28;20405;-85
2020/12/14 05:45:34;;;;;;;;;;;;;;;;;;5077448;28;20382;-86
2020/12/14 05:48:00;;;;;;;;;;;;;;;;;;5078675;28;20374;-86
2020/12/14 05:50:26;;;;;;;;;;;;;;;;;;5092569;28;20364;-84
2020/12/14 05:52:53;;;;;;;;;;;;;;;;;;5088250;28;20961;-87
2020/12/14 05:55:19;;;;;;;;;;;;;;;;;;5079757;28;20382;-85
2020/12/14 05:57:46;;;;;;;;;;;;;;;;;;5079085;28;20385;-87
2020/12/14 06:00:12;;;;;;;;;;;;;;;;;;5079529;28;20382;-86
2020/12/14 06:02:38;;;;;;;;;;;;;;;;;;5079255;28;20414;-87
2020/12/14 06:05:05;;;;;;;;;;;;;;;;;;5080613;28;20381;-86
2020/12/14 06:07:31;;;;;;;;;;;;;;;;;;5080174;28;20439;-86
2020/12/14 06:09:58;;;;;;;;;;;;;;;;;;5080902;28;20416;-86
2020/12/14 06:12:24;;;;;;;;;;;;;;;;;;5086014;28;20405;-85
2020/12/14 06:14:50;;;;;;;;;;;;;;;;;;5089747;28;20857;-86
2020/12/14 06:17:17;;;;;;;;;;;;;;;;;;5080347;28;20412;-86
2020/12/14 06:19:43;;;;;;;;;;;;;;;;;;5081041;28;20385;-86
2020/12/14 06:22:10;;;;;;;;;;;;;;;;;;5081854;28;20460;-86
2020/12/14 06:24:36;;;;;;;;;;;;;;;;;;5081803;28;20385;-87
2020/12/14 06:27:02;;;;;;;;;;;;;;;;;;5080834;28;20476;-87
2020/12/14 06:29:29;;;;;;;;;;;;;;;;;;5080158;28;20869;-87
2020/12/14 06:31:56;;;;;;;;;;;;;;;;;;5081938;28;20377;-87
2020/12/14 06:34:22;;;;;;;;;;;;;;;;;;5080041;28;20389;-87
2020/12/14 06:36:48;;;;;;;;;;;;;;;;;;5079659;28;20765;-87
2020/12/14 06:39:15;;;;;;;;;;;;;;;;;;5079811;28;20390;-86
2020/12/14 06:41:41;;;;;;;;;;;;;;;;;;5079712;28;20406;-87
2020/12/14 06:44:09;;;;;;;;;;;;;;;;;;5080537;28;20417;-86
2020/12/14 06:46:36;;;;;;;;;;;;;;;;;;5077127;28;20396;-82
2020/12/14 06:49:02;;;;;;;;;;;;;;;;;;5095930;28;20385;-85
2020/12/14 06:51:29;;;;;;;;;;;;;;;;;;5091373;28;20400;-86
2020/12/14 06:53:55;;;;;;;;;;;;;;;;;;5087193;28;20932;-86
2020/12/14 06:56:21;;;;;;;;;;;;;;;;;;5080997;28;20381;-86
2020/12/14 06:58:48;;;;;;;;;;;;;;;;;;5083227;28;20423;-86
2020/12/14 07:01:14;;;;;;;;;;;;;;;;;;5082748;28;20400;-85
2020/12/14 07:03:41;;;;;;;;;;;;;;;;;;5083893;28;20398;-87
2020/12/14 07:06:07;;;;;;;;;;;;;;;;;;5091228;28;20412;-85
2020/12/14 07:08:41;;;;;;;;;;;;;;;;;;5088320;28;20389;-86
2020/12/14 07:11:07;;;;;;;;;;;;;;;;;;5096250;28;20385;-86
2020/12/14 07:13:34;;;;;;;;;;;;;;;;;;5079670;28;20447;-87
2020/12/14 07:16:00;;;;;;;;;;;;;;;;;;5080653;28;20448;-87
2020/12/14 07:18:26;;;;;;;;;;;;;;;;;;5079175;28;20716;-88
2020/12/14 07:20:53;;;;;;;;;;;;;;;;;;5078322;28;20773;-86
2020/12/14 07:23:19;;;;;;;;;;;;;;;;;;5078309;28;20424;-86
2020/12/14 07:25:45;;;;;;;;;;;;;;;;;;5081192;28;20381;-87
2020/12/14 07:28:12;;;;;;;;;;;;;;;;;;5081111;28;20378;-87
2020/12/14 07:30:38;;;;;;;;;;;;;;;;;;5072998;28;20737;-84
2020/12/14 07:33:05;;;;;;;;;;;;;;;;;;5086980;28;20397;-82
2020/12/14 07:35:31;;;;;;;;;;;;;;;;;;5096293;28;20424;-85
2020/12/14 07:37:57;;;;;;;;;;;;;;;;;;5096748;28;20386;-83
2020/12/14 07:40:24;;;;;;;;;;;;;;;;;;5090263;28;20403;-84
2020/12/14 07:42:50;;;;;;;;;;;;;;;;;;5071270;28;20474;-86
2020/12/14 07:45:17;;;;;;;;;;;;;;;;;;5062458;28;20380;-85
2020/12/14 07:47:44;;;;;;;;;;;;;;;;;;5078342;28;20406;-86
2020/12/14 07:50:10;;;;;;;;;;;;;;;;;;5082484;28;20378;-86
2020/12/14 07:52:36;;;;;;;;;;;;;;;;;;5062837;28;20412;-86
2020/12/14 07:55:03;;;;;;;;;;;;;;;;;;5077390;28;20853;-85
2020/12/14 07:57:32;;;;;;;;;;;;;;;;;;5080232;28;20388;-85
2020/12/14 07:59:59;;;;;;;;;;;;;;;;;;5086790;28;20389;-85
2020/12/14 08:02:25;;;;;;;;;;;;;;;;;;5092678;28;20858;-85
2020/12/14 08:04:52;;;;;;;;;;;;;;;;;;5075557;28;20387;-85
2020/12/14 08:07:18;;;;;;;;;;;;;;;;;;5066405;28;20838;-85
2020/12/14 08:09:44;;;;;;;;;;;;;;;;;;5080225;28;20834;-86
2020/12/14 08:12:11;;;;;;;;;;;;;;;;;;5081733;28;20408;-85
2020/12/14 08:14:37;;;;;;;;;;;;;;;;;;5081635;28;20394;-85
2020/12/14 08:17:04;;;;;;;;;;;;;;;;;;5080085;28;20374;-84
2020/12/14 08:19:30;;;;;;;;;;;;;;;;;;5060072;28;20388;-85
2020/12/14 08:21:56;;;;;;;;;;;;;;;;;;5079756;28;20428;-85
2020/12/14 08:24:23;;;;;;;;;;;;;;;;;;5080796;28;20459;-85
2020/12/14 08:26:49;;;;;;;;;;;;;;;;;;5079496;28;20382;-86
2020/12/14 08:29:16;;;;;;;;;;;;;;;;;;5079809;28;20390;-86
2020/12/14 08:31:42;;;;;;;;;;;;;;;;;;5083273;28;20381;-86
2020/12/14 08:34:08;;;;;;;;;;;;;;;;;;5083227;28;20424;-85
2020/12/14 08:36:35;;;;;;;;;;;;;;;;;;5086606;28;20459;-84
2020/12/14 08:39:02;;;;;;;;;;;;;;;;;;5076225;28;20397;-84
2020/12/14 08:41:28;;;;;;;;;;;;;;;;;;5081870;28;20385;-84
2020/12/14 08:43:55;;;;;;;;;;;;;;;;;;5082886;28;20816;-84
2020/12/14 08:46:22;;;;;;;;;;;;;;;;;;5096653;28;20379;-84
2020/12/14 08:48:48;;;;;;;;;;;;;;;;;;5084797;28;20381;-84
2020/12/14 08:51:15;;;;;;;;;;;;;;;;;;5084534;28;20386;-85
2020/12/14 08:53:41;;;;;;;;;;;;;;;;;;5084295;28;20400;-83
2020/12/14 08:56:08;;;;;;;;;;;;;;;;;;5084293;28;20792;-85
2020/12/14 08:58:34;;;;;;;;;;;;;;;;;;5084640;28;20397;-84
2020/12/14 09:01:01;;;;;;;;;;;;;;;;;;5096855;28;20739;-85
2020/12/14 09:03:27;;;;;;;;;;;;;;;;;;5093216;28;20407;-86
2020/12/14 09:05:54;;;;;;;;;;;;;;;;;;5089459;28;20390;-84
2020/12/14 09:08:20;;;;;;;;;;;;;;;;;;5085686;28;20397;-85
2020/12/14 09:10:46;;;;;;;;;;;;;;;;;;5076987;28;20373;-86
2020/12/14 09:13:13;;;;;;;;;;;;;;;;;;5081483;28;20409;-86
2020/12/14 09:15:39;;;;;;;;;;;;;;;;;;5075825;28;20446;-87
2020/12/14 09:18:06;;;;;;;;;;;;;;;;;;5071907;28;20439;-86
2020/12/14 09:20:32;;;;;;;;;;;;;;;;;;5080856;28;20370;-86
2020/12/14 09:22:58;;;;;;;;;;;;;;;;;;5078493;28;20401;-85
2020/12/14 09:25:25;;;;;;;;;;;;;;;;;;5089503;28;20362;-82
2020/12/14 09:27:51;;;;;;;;;;;;;;;;;;5089557;28;20374;-85
2020/12/14 09:30:17;;;;;;;;;;;;;;;;;;5097561;28;20742;-85
2020/12/14 09:32:44;;;;;;;;;;;;;;;;;;5082871;28;20394;-85
2020/12/14 09:35:10;;;;;;;;;;;;;;;;;;5082413;28;20385;-85
2020/12/14 09:37:37;;;;;;;;;;;;;;;;;;5067686;28;20442;-86
2020/12/14 09:40:03;;;;;;;;;;;;;;;;;;5080529;28;20385;-86
2020/12/14 09:42:30;;;;;;;;;;;;;;;;;;5081379;28;20773;-86
2020/12/14 09:44:57;;;;;;;;;;;;;;;;;;5082324;28;20386;-87
2020/12/14 09:47:23;;;;;;;;;;;;;;;;;;5089282;28;20419;-84
2020/12/14 09:49:49;;;;;;;;;;;;;;;;;;5093739;28;20750;-86
2020/12/14 09:52:16;;;;;;;;;;;;;;;;;;5097016;28;20402;-86
2020/12/14 09:54:42;;;;;;;;;;;;;;;;;;5079820;28;20389;-86
2020/12/14 09:57:08;;;;;;;;;;;;;;;;;;5079310;28;20869;-86
2020/12/14 09:59:35;;;;;;;;;;;;;;;;;;5079841;28;20378;-86
2020/12/14 10:02:01;;;;;;;;;;;;;;;;;;5077482;28;20408;-84
2020/12/14 10:04:28;;;;;;;;;;;;;;;;;;5079861;28;20390;-86
2020/12/14 10:06:54;;;;;;;;;;;;;;;;;;5080959;28;20378;-86
2020/12/14 10:09:20;;;;;;;;;;;;;;;;;;5092147;28;20433;-84
2020/12/14 10:11:48;;;;;;;;;;;;;;;;;;5095761;28;20374;-87
2020/12/14 10:14:15;;;;;;;;;;;;;;;;;;5079286;28;20421;-86
2020/12/14 10:16:41;;;;;;;;;;;;;;;;;;5077554;28;20378;-87
2020/12/14 10:19:07;;;;;;;;;;;;;;;;;;5081768;28;20477;-85
2020/12/14 10:21:34;;;;;;;;;;;;;;;;;;5081731;28;20773;-86
2020/12/14 10:24:00;;;;;;;;;;;;;;;;;;5084109;28;20409;-86
2020/12/14 10:26:27;;;;;;;;;;;;;;;;;;5078829;28;20386;-85
2020/12/14 10:28:53;;;;;;;;;;;;;;;;;;5090767;28;20386;-88
2020/12/14 10:31:19;;;;;;;;;;;;;;;;;;5082793;28;20396;-83
2020/12/14 10:33:47;;;;;;;;;;;;;;;;;;5092214;28;20409;-87
2020/12/14 10:36:18;;;;;;;;;;;;;;;;;;5083426;28;20378;-85
2020/12/14 10:38:45;;;;;;;;;;;;;;;;;;5082206;28;20374;-87
2020/12/14 10:41:11;;;;;;;;;;;;;;;;;;5080320;28;20417;-86
2020/12/14 10:43:38;;;;;;;;;;;;;;;;;;5091835;28;20432;-82
2020/12/14 10:46:04;;;;;;;;;;;;;;;;;;5086165;28;20361;-83
2020/12/14 10:48:30;;;;;;;;;;;;;;;;;;5089542;28;20411;-83
2020/12/14 10:50:57;;;;;;;;;;;;;;;;;;5092371;28;20377;-83
2020/12/14 10:53:23;;;;;;;;;;;;;;;;;;5085570;28;20812;-83
2020/12/14 10:55:50;;;;;;;;;;;;;;;;;;5081631;28;20815;-82
2020/12/14 10:58:16;;;;;;;;;;;;;;;;;;5081441;28;20473;-79
2020/12/14 11:00:43;;;;;;;;;;;;;;;;;;5082582;28;20439;-82
2020/12/14 11:03:09;;;;;;;;;;;;;;;;;;5093300;28;20401;-82
2020/12/14 11:05:37;;;;;;;;;;;;;;;;;;5081076;28;20384;-81
2020/12/14 11:08:03;;;;;;;;;;;;;;;;;;5082919;28;20395;-83
2020/12/14 11:10:29;;;;;;;;;;;;;;;;;;5080361;28;20381;-81
2020/12/14 11:12:56;;;;;;;;;;;;;;;;;;5078023;28;20425;-84
2020/12/14 11:15:22;;;;;;;;;;;;;;;;;;5083083;28;20382;-79
2020/12/14 11:17:49;;;;;;;;;;;;;;;;;;5085535;28;20378;-82
2020/12/14 11:20:15;;;;;;;;;;;;;;;;;;5088290;28;20431;-83
2020/12/14 11:22:42;;;;;;;;;;;;;;;;;;5089626;28;20417;-84
2020/12/14 11:25:09;;;;;;;;;;;;;;;;;;5087572;28;20393;-81
2020/12/14 11:27:35;;;;;;;;;;;;;;;;;;5096095;28;20367;-82
2020/12/14 11:30:02;;;;;;;;;;;;;;;;;;5081186;28;20373;-80
2020/12/14 11:32:28;;;;;;;;;;;;;;;;;;5074307;28;20419;-81
2020/12/14 11:34:54;;;;;;;;;;;;;;;;;;5088094;28;20410;-82
2020/12/14 11:37:21;;;;;;;;;;;;;;;;;;5060366;28;20393;-84
2020/12/14 11:39:47;;;;;;;;;;;;;;;;;;5068382;28;20439;-82
2020/12/14 11:42:14;;;;;;;;;;;;;;;;;;5079161;28;20410;-82
2020/12/14 11:44:40;;;;;;;;;;;;;;;;;;5079483;28;20376;-82
2020/12/14 11:47:06;;;;;;;;;;;;;;;;;;5077776;28;20440;-82
2020/12/14 11:49:33;;;;;;;;;;;;;;;;;;5080996;28;20386;-82
2020/12/14 11:51:59;;;;;;;;;;;;;;;;;;5079373;28;20382;-82
2020/12/14 11:54:26;;;;;;;;;;;;;;;;;;5080597;28;20458;-80
2020/12/14 11:56:52;;;;;;;;;;;;;;;;;;5079291;28;20385;-82
2020/12/14 11:59:19;;;;;;;;;;;;;;;;;;5080233;28;20382;-81
2020/12/14 12:01:45;;;;;;;;;;;;;;;;;;5080536;28;20412;-83
2020/12/14 12:04:11;;;;;;;;;;;;;;;;;;5081282;28;20406;-83
2020/12/14 12:06:38;;;;;;;;;;;;;;;;;;5086280;28;20390;-84
2020/12/14 12:09:04;;;;;;;;;;;;;;;;;;5080059;28;20415;-80
2020/12/14 12:11:37;;;;;;;;;;;;;;;;;;5081683;28;20469;-80
2020/12/14 12:14:04;;;;;;;;;;;;;;;;;;5079533;28;20573;-80
2020/12/14 12:16:30;;;;;;;;;;;;;;;;;;5077726;28;20103;-77
2020/12/14 12:18:56;;;;;;;;;;;;;;;;;;5083642;28;19928;-77
2020/12/14 12:21:23;;;;;;;;;;;;;;;;;;5084038;28;19920;-77
2020/12/14 12:23:49;;;;;;;;;;;;;;;;;;5086925;28;19995;-83
2020/12/14 12:26:16;;;;;;;;;;;;;;;;;;5091322;28;19989;-79
2020/12/14 12:28:42;;;;;;;;;;;;;;;;;;5084440;28;20690;-80
2020/12/14 12:31:09;;;;;;;;;;;;;;;;;;5086262;28;20377;-79
2020/12/14 12:33:35;;;;;;;;;;;;;;;;;;5079012;28;20408;-79
2020/12/14 12:36:01;;;;;;;;;;;;;;;;;;5062321;28;20380;-80
2020/12/14 12:38:29;;;;;;;;;;;;;;;;;;5063694;28;20396;-77
2020/12/14 12:40:55;;;;;;;;;;;;;;;;;;5078413;28;20425;-82
2020/12/14 12:43:22;;;;;;;;;;;;;;;;;;5061274;28;20424;-79
2020/12/14 12:45:50;;;;;;;;;;;;;;;;;;5075288;28;20444;-79
2020/12/14 12:48:16;;;;;;;;;;;;;;;;;;5081653;28;20474;-79
2020/12/14 12:50:53;;;;;;;;;;;;;;;;;;5083326;28;20348;-80
2020/12/14 12:53:19;;;;;;;;;;;;;;;;;;5086296;28;20406;-79
2020/12/14 12:55:46;;;;;;;;;;;;;;;;;;5080292;28;20414;-78
2020/12/14 12:58:12;;;;;;;;;;;;;;;;;;5083000;28;20431;-79
2020/12/14 13:00:38;;;;;;;;;;;;;;;;;;5073278;28;20374;-79
2020/12/14 13:03:05;;;;;;;;;;;;;;;;;;5084928;28;20473;-81
2020/12/14 13:05:31;;;;;;;;;;;;;;;;;;5076969;28;20459;-80
2020/12/14 13:07:58;;;;;;;;;;;;;;;;;;5081831;28;20393;-78
2020/12/14 13:10:24;;;;;;;;;;;;;;;;;;5087580;28;20412;-78
2020/12/14 13:12:55;;;;;;;;;;;;;;;;;;5085805;28;20638;-81
2020/12/14 13:15:34;;;;;;;;;;;;;;;;;;5093506;28;19959;-79
2020/12/14 13:18:07;;;;;;;;;;;;;;;;;;5093196;28;20483;-77
2020/12/14 13:20:33;;;;;;;;;;;;;;;;;;5090308;28;19972;-78
2020/12/14 13:22:59;;;;;;;;;;;;;;;;;;5089862;28;19995;-77
2020/12/14 13:25:27;;;;;;;;;;;;;;;;;;5091235;28;20025;-78
2020/12/14 13:27:53;;;;;;;;;;;;;;;;;;5077158;28;19967;-80
2020/12/14 13:30:20;;;;;;;;;;;;;;;;;;5076695;28;19972;-79
2020/12/14 13:32:46;;;;;;;;;;;;;;;;;;5086047;28;20009;-82
2020/12/14 13:35:12;;;;;;;;;;;;;;;;;;5099168;28;19997;-81
2020/12/14 13:37:42;;;;;;;;;;;;;;;;;;5089079;28;20021;-80
2020/12/14 13:40:08;;;;;;;;;;;;;;;;;;5099629;28;19968;-81
2020/12/14 13:42:35;;;;;;;;;;;;;;;;;;5061632;28;19996;-81
2020/12/14 13:45:01;;;;;;;;;;;;;;;;;;5067678;28;19982;-81
2020/12/14 13:47:28;;;;;;;;;;;;;;;;;;5080040;28;19998;-80
2020/12/14 13:49:54;;;;;;;;;;;;;;;;;;5071575;28;20343;-82
2020/12/14 13:52:22;;;;;;;;;;;;;;;;;;5079242;28;19991;-81
2020/12/14 13:54:48;;;;;;;;;;;;;;;;;;5080191;28;20046;-81
2020/12/14 13:57:14;;;;;;;;;;;;;;;;;;5077684;28;19983;-83
2020/12/14 13:59:41;;;;;;;;;;;;;;;;;;5082572;28;20451;-82
2020/12/14 14:02:07;;;;;;;;;;;;;;;;;;5083927;28;19991;-82
2020/12/14 14:04:34;;;;;;;;;;;;;;;;;;5092847;28;19983;-81
2020/12/14 14:07:01;;;;;;;;;;;;;;;;;;5092263;28;19979;-81
2020/12/14 14:09:29;;;;;;;;;;;;;;;;;;5085392;28;19967;-82
2020/12/14 14:11:56;;;;;;;;;;;;;;;;;;5073951;28;19979;-82
2020/12/14 14:14:22;;;;;;;;;;;;;;;;;;5062171;28;20034;-82
2020/12/14 14:16:49;;;;;;;;;;;;;;;;;;5074596;28;20478;-80
2020/12/14 14:19:15;;;;;;;;;;;;;;;;;;5085161;28;19971;-82
2020/12/14 14:21:41;;;;;;;;;;;;;;;;;;5099215;28;19994;-82
2020/12/14 14:24:08;;;;;;;;;;;;;;;;;;5082510;28;20325;-81
2020/12/14 14:26:34;;;;;;;;;;;;;;;;;;5078588;28;19974;-81
2020/12/14 14:29:01;;;;;;;;;;;;;;;;;;5062617;28;19971;-81
2020/12/14 14:31:28;;;;;;;;;;;;;;;;;;5060089;28;19976;-82
2020/12/14 14:33:54;;;;;;;;;;;;;;;;;;5061589;28;20024;-81
2020/12/14 14:36:21;;;;;;;;;;;;;;;;;;5089900;28;19968;-82
2020/12/14 14:38:48;;;;;;;;;;;;;;;;;;5078501;28;19976;-82
2020/12/14 14:41:14;;;;;;;;;;;;;;;;;;5060255;28;19994;-82
2020/12/14 14:43:41;;;;;;;;;;;;;;;;;;5080842;28;19999;-81
2020/12/14 14:46:07;;;;;;;;;;;;;;;;;;5082858;28;19983;-80
2020/12/14 14:48:34;;;;;;;;;;;;;;;;;;5081359;28;20013;-80
2020/12/14 14:51:00;;;;;;;;;;;;;;;;;;5085550;28;19971;-82
2020/12/14 14:53:28;;;;;;;;;;;;;;;;;;5089541;28;20286;-81
2020/12/14 15:01:34;;;;;;;;;;;;;;;;;;5037600;28;19983;-82
2020/12/14 15:04:00;;;;;;;;;;;;;;;;;;5040694;28;20103;-81
2020/12/14 15:06:27;;;;;;;;;;;;;;;;;;5043319;28;19979;-81
2020/12/14 15:08:53;;;;;;;;;;;;;;;;;;5042222;28;19978;-82
2020/12/14 15:11:33;;;;;;;;;;;;;;;;;;;;;
2020/12/14 15:13:59;;;;;;;;;;;;;;;;;;5036177;28;20187;-79
2020/12/14 15:16:26;;;;;;;;;;;;;;;;;;5050647;28;20314;-80
2020/12/14 15:18:52;;;;;;;;;;;;;;;;;;5050333;28;19990;-80
2020/12/14 15:21:18;;;;;;;;;;;;;;;;;;5038722;28;20010;-82
2020/12/14 15:23:45;;;;;;;;;;;;;;;;;;5036748;28;19988;-82
2020/12/14 15:26:11;;;;;;;;;;;;;;;;;;5035666;28;20440;-82
2020/12/14 15:28:38;;;;;;;;;;;;;;;;;;5034209;28;20070;-82
2020/12/14 15:31:04;;;;;;;;;;;;;;;;;;5034921;28;19976;-82
2020/12/14 15:33:31;;;;;;;;;;;;;;;;;;5073944;28;19987;-81
2020/12/14 15:35:57;;;;;;;;;;;;;;;;;;5089449;28;20336;-81
2020/12/14 15:38:24;;;;;;;;;;;;;;;;;;5084574;28;19989;-84
2020/12/14 15:40:50;;;;;;;;;;;;;;;;;;5087840;28;19971;-83
2020/12/14 15:43:16;;;;;;;;;;;;;;;;;;5082096;28;20367;-83
2020/12/14 15:45:43;;;;;;;;;;;;;;;;;;5083620;28;19975;-84
2020/12/14 15:48:09;;;;;;;;;;;;;;;;;;5086529;28;20040;-82
2020/12/14 15:50:43;;;;;;;;;;;;;;;;;;5086178;28;19975;-84
2020/12/14 15:53:09;;;;;;;;;;;;;;;;;;5090063;28;20058;-83
2020/12/14 15:55:36;;;;;;;;;;;;;;;;;;5090146;28;20046;-83
2020/12/14 15:58:02;;;;;;;;;;;;;;;;;;5087945;28;19979;-85
2020/12/14 16:00:29;;;;;;;;;;;;;;;;;;5085892;28;19982;-84
2020/12/14 16:02:55;;;;;;;;;;;;;;;;;;5088382;28;20412;-82
2020/12/14 16:05:22;;;;;;;;;;;;;;;;;;5098341;28;19955;-85
2020/12/14 16:07:49;;;;;;;;;;;;;;;;;;5086455;28;19978;-83
2020/12/14 16:10:16;;;;;;;;;;;;;;;;;;5082615;28;19971;-83
2020/12/14 16:12:43;;;;;;;;;;;;;;;;;;5093463;28;19986;-83
2020/12/14 16:15:09;;;;;;;;;;;;;;;;;;5100109;28;19975;-83
2020/12/14 16:17:45;;;;;;;;;;;;;;;;;;5085699;28;19951;-83
2020/12/14 16:20:17;;;;;;;;;;;;;;;;;;5085770;28;20473;-83
2020/12/14 16:22:44;;;;;;;;;;;;;;;;;;5081765;28;20364;-81
2020/12/14 16:25:11;;;;;;;;;;;;;;;;;;5080791;28;19975;-82
2020/12/14 16:27:37;;;;;;;;;;;;;;;;;;5091901;28;19967;-80
2020/12/14 16:30:04;;;;;;;;;;;;;;;;;;5093380;28;19979;-80
2020/12/14 16:32:33;;;;;;;;;;;;;;;;;;5091808;28;19991;-82
2020/12/14 16:35:00;;;;;;;;;;;;;;;;;;5086921;28;20075;-82
2020/12/14 16:37:26;;;;;;;;;;;;;;;;;;5090744;28;19971;-82
2020/12/14 16:39:52;;;;;;;;;;;;;;;;;;5084791;28;19975;-82
2020/12/14 16:42:19;;;;;;;;;;;;;;;;;;5080551;28;19995;-82
2020/12/14 16:44:45;;;;;;;;;;;;;;;;;;5094114;28;19958;-82
2020/12/14 16:47:12;;;;;;;;;;;;;;;;;;5084579;28;19972;-81
2020/12/14 16:49:38;;;;;;;;;;;;;;;;;;5083270;28;20430;-79